createdAt,value
2022-09-02T04:00:31.851Z,3.90
2022-09-02T04:11:36.691Z,2.40
2022-09-02T04:22:36.569Z,2.40
2022-09-02T04:33:36.451Z,3.00
2022-09-02T04:44:36.323Z,2.60
2022-09-02T04:55:36.215Z,2.20
2022-09-02T05:06:39.515Z,2.40
2022-09-02T05:17:35.955Z,3.80
2022-09-02T05:28:35.828Z,3.90
2022-09-02T05:39:35.713Z,4.90
2022-09-02T05:50:35.593Z,2.90
2022-09-02T06:01:35.547Z,3.00
2022-09-02T06:12:39.349Z,2.60
2022-09-02T06:23:35.231Z,3.50
2022-09-02T06:34:35.103Z,1.80
2022-09-02T06:45:34.988Z,1.70
2022-09-02T06:56:34.857Z,2.00
2022-09-02T07:07:34.736Z,2.00
2022-09-02T07:18:34.611Z,1.50
2022-09-02T07:29:34.490Z,2.30
2022-09-02T07:40:34.408Z,2.30
2022-09-02T07:51:34.267Z,2.30
2022-09-02T08:02:34.144Z,2.20
2022-09-02T08:13:34.002Z,2.10
2022-09-02T08:24:34.877Z,2.10
2022-09-02T08:35:33.763Z,2.20
2022-09-02T08:46:33.646Z,2.00
2022-09-02T08:57:33.513Z,2.20
2022-09-02T09:08:33.397Z,1.60
2022-09-02T09:19:33.273Z,1.70
2022-09-02T09:30:33.156Z,1.80
2022-09-02T09:41:33.029Z,1.70
2022-09-02T09:52:32.934Z,1.30
2022-09-02T10:03:32.914Z,1.30
2022-09-02T10:14:32.683Z,1.50
2022-09-02T10:25:32.567Z,1.30
2022-09-02T10:36:32.513Z,1.30
2022-09-02T10:47:32.317Z,1.40
2022-09-02T10:58:32.189Z,2.00
2022-09-02T11:09:32.073Z,1.50
2022-09-02T11:20:31.954Z,1.40
2022-09-02T11:31:32.904Z,1.40
2022-09-02T11:42:32.711Z,1.30
2022-09-02T11:53:31.597Z,1.50
2022-09-02T12:05:02.730Z,1.90
2022-09-02T12:15:31.347Z,1.10
2022-09-02T12:16:26.442Z,1.30
2022-09-02T12:17:26.339Z,1.40
2022-09-02T12:28:31.482Z,1.00
2022-09-02T12:29:26.200Z,1.10
2022-09-02T12:30:26.195Z,1.40
2022-09-02T12:41:32.077Z,1.20
2022-09-02T12:42:26.085Z,1.20
2022-09-02T12:43:26.086Z,1.30
2022-09-02T12:54:30.948Z,1.30
2022-09-02T13:05:30.835Z,1.40
2022-09-02T13:16:30.706Z,1.20
2022-09-02T13:17:36.174Z,1.10
2022-09-02T13:18:26.698Z,1.40
2022-09-02T13:29:30.579Z,1.20
2022-09-02T13:30:25.563Z,1.20
2022-09-02T13:31:25.567Z,1.30
2022-09-02T13:42:32.918Z,1.40
2022-09-02T13:54:11.736Z,1.30
2022-09-02T14:04:30.188Z,1.50
2022-09-02T14:15:30.161Z,1.30
2022-09-02T14:26:29.952Z,1.00
2022-09-02T14:37:29.825Z,1.50
2022-09-02T14:48:29.736Z,1.20
2022-09-02T14:59:29.591Z,1.10
2022-09-02T15:10:29.477Z,1.40
2022-09-02T15:21:29.343Z,1.20
2022-09-02T15:32:29.218Z,1.20
2022-09-02T15:43:29.101Z,1.30
2022-09-02T15:54:29.002Z,1.00
2022-09-02T16:05:28.858Z,1.20
2022-09-02T16:16:28.760Z,1.30
2022-09-02T16:27:28.617Z,1.40
2022-09-02T16:38:28.494Z,1.80
2022-09-02T16:49:28.376Z,1.20
2022-09-02T17:00:28.271Z,1.70
2022-09-02T17:11:28.136Z,1.20
2022-09-02T17:22:28.012Z,1.50
2022-09-02T17:33:27.899Z,1.40
2022-09-02T17:44:28.100Z,1.00
2022-09-02T17:55:27.665Z,1.20
2022-09-02T18:06:28.528Z,1.70
2022-09-02T18:17:27.407Z,1.00
2022-09-02T18:28:27.566Z,1.30
2022-09-02T18:39:27.210Z,1.50
2022-09-02T18:50:47.550Z,1.40
2022-09-02T19:01:27.032Z,1.80
2022-09-02T19:12:26.789Z,1.60
2022-09-02T19:23:26.669Z,1.90
2022-09-02T19:34:26.552Z,1.80
2022-09-02T19:45:26.470Z,1.60
2022-09-02T19:56:26.320Z,1.30
2022-09-02T20:07:26.182Z,1.90
2022-09-02T20:18:26.059Z,2.90
2022-09-02T20:29:26.069Z,1.70
2022-09-02T20:40:25.816Z,1.40
2022-09-02T20:51:25.758Z,1.60
